Time;durP1;ratioP1;P1;durP2;ratioP2;P2;SDS_P1;SDS_P2;PMS_P1;PMS_P2;Temp;Humidity;BMP_temperature;BMP_pressure;BME280_temperature;BME280_humidity;BME280_pressure;Samples;Min_cycle;Max_cycle;Signal;HPM_P1;HPM_P2
2023/12/11 00:00:24;;;;;;;31.00;4.10;;;;;;;;;;5032024;28;20190;-73
2023/12/11 00:02:49;;;;;;;31.48;4.53;;;;;;;;;;5038416;28;20450;-74
2023/12/11 00:05:15;;;;;;;33.90;4.43;;;;;;;;;;5036265;28;20276;-75
2023/12/11 00:07:40;;;;;;;35.25;3.78;;;;;;;;;;5025426;28;20217;-74
2023/12/11 00:10:06;;;;;;;36.60;5.20;;;;;;;;;;5028986;28;20238;-73
2023/12/11 00:12:32;;;;;;;31.67;4.80;;;;;;;;;;5024488;28;20269;-74
2023/12/11 00:14:59;;;;;;;28.95;4.35;;;;;;;;;;5030148;28;20218;-74
2023/12/11 00:17:24;;;;;;;37.85;5.13;;;;;;;;;;5030824;28;20244;-73
2023/12/11 00:19:50;;;;;;;33.38;5.63;;;;;;;;;;5021464;28;20207;-73
2023/12/11 00:22:15;;;;;;;31.63;4.72;;;;;;;;;;5038819;28;20197;-73
2023/12/11 00:24:41;;;;;;;34.13;6.07;;;;;;;;;;5032241;28;20281;-73
2023/12/11 00:27:06;;;;;;;30.23;4.57;;;;;;;;;;5026220;28;20278;-74
2023/12/11 00:29:32;;;;;;;32.80;4.47;;;;;;;;;;5031433;28;20285;-73
2023/12/11 00:31:57;;;;;;;37.35;5.57;;;;;;;;;;5030005;28;20571;-74
2023/12/11 00:34:22;;;;;;;36.63;4.75;;;;;;;;;;5032780;28;20232;-73
2023/12/11 00:36:48;;;;;;;33.15;5.65;;;;;;;;;;5031655;28;20185;-73
2023/12/11 00:39:16;;;;;;;31.75;5.50;;;;;;;;;;5041587;28;20306;-73
2023/12/11 00:41:43;;;;;;;34.53;5.03;;;;;;;;;;5028665;28;20193;-74
2023/12/11 00:44:08;;;;;;;42.45;5.47;;;;;;;;;;5034691;28;20558;-75
2023/12/11 00:46:34;;;;;;;41.78;5.38;;;;;;;;;;5030266;28;20206;-74
2023/12/11 00:48:59;;;;;;;43.35;5.35;;;;;;;;;;5029586;28;20576;-73
2023/12/11 00:51:25;;;;;;;35.45;5.22;;;;;;;;;;5030632;28;20202;-73
2023/12/11 00:53:50;;;;;;;44.33;5.50;;;;;;;;;;5029829;28;20190;-75
2023/12/11 00:56:15;;;;;;;40.55;6.10;;;;;;;;;;5031728;28;20305;-74
2023/12/11 00:58:41;;;;;;;41.67;5.88;;;;;;;;;;5029355;28;20190;-73
2023/12/11 01:01:07;;;;;;;50.25;6.05;;;;;;;;;;5026003;28;20322;-73
2023/12/11 01:03:34;;;;;;;42.00;5.47;;;;;;;;;;5027735;28;20181;-74
2023/12/11 01:06:00;;;;;;;47.63;6.65;;;;;;;;;;5019884;28;20509;-74
2023/12/11 01:08:28;;;;;;;40.78;6.05;;;;;;;;;;5032149;28;20201;-73
2023/12/11 01:10:57;;;;;;;45.17;6.25;;;;;;;;;;5028682;28;20228;-74
2023/12/11 01:13:24;;;;;;;41.20;5.63;;;;;;;;;;5022945;28;20186;-73
2023/12/11 01:15:49;;;;;;;47.08;5.97;;;;;;;;;;5028302;28;20222;-73
2023/12/11 01:18:15;;;;;;;42.95;6.82;;;;;;;;;;5031519;28;20221;-73
2023/12/11 01:20:40;;;;;;;46.00;6.20;;;;;;;;;;5022073;28;20297;-73
2023/12/11 01:23:06;;;;;;;45.63;5.60;;;;;;;;;;5034933;28;20186;-73
2023/12/11 01:25:31;;;;;;;49.20;6.85;;;;;;;;;;5027617;28;20202;-73
2023/12/11 01:27:57;;;;;;;47.35;7.63;;;;;;;;;;5050034;28;20201;-74
2023/12/11 01:30:23;;;;;;;49.30;6.30;;;;;;;;;;5039745;28;20332;-73
2023/12/11 01:32:48;;;;;;;35.42;6.25;;;;;;;;;;5032490;28;20202;-73
2023/12/11 01:35:13;;;;;;;43.67;6.60;;;;;;;;;;5029089;28;20294;-73
2023/12/11 01:37:39;;;;;;;50.90;7.13;;;;;;;;;;5025650;28;20553;-73
2023/12/11 01:40:07;;;;;;;41.97;5.40;;;;;;;;;;5024047;28;20198;-73
2023/12/11 01:42:33;;;;;;;42.03;6.47;;;;;;;;;;5009346;28;20208;-73
2023/12/11 01:44:58;;;;;;;48.50;7.05;;;;;;;;;;5031556;28;20268;-72
2023/12/11 01:47:24;;;;;;;40.40;6.35;;;;;;;;;;5024028;28;20233;-73
2023/12/11 01:49:50;;;;;;;48.92;6.55;;;;;;;;;;5025890;28;20194;-73
2023/12/11 01:52:16;;;;;;;51.10;7.15;;;;;;;;;;5025011;28;20595;-74
2023/12/11 01:54:41;;;;;;;46.55;6.75;;;;;;;;;;5022488;28;20743;-73
2023/12/11 01:57:08;;;;;;;51.00;6.70;;;;;;;;;;5030938;28;20186;-74
2023/12/11 01:59:34;;;;;;;43.45;6.30;;;;;;;;;;5025595;28;20194;-73
2023/12/11 02:02:01;;;;;;;49.55;6.68;;;;;;;;;;5033561;28;20179;-73
2023/12/11 02:04:26;;;;;;;44.75;7.78;;;;;;;;;;5026754;28;20711;-75
2023/12/11 02:06:53;;;;;;;54.03;6.72;;;;;;;;;;5021613;28;20187;-73
2023/12/11 02:09:18;;;;;;;34.45;6.03;;;;;;;;;;5013601;28;20284;-73
2023/12/11 02:11:44;;;;;;;44.38;7.13;;;;;;;;;;5023811;28;20342;-73
2023/12/11 02:14:09;;;;;;;44.08;6.85;;;;;;;;;;5022243;28;20189;-73
2023/12/11 02:16:35;;;;;;;44.97;6.68;;;;;;;;;;5024228;28;20233;-74
2023/12/11 02:19:00;;;;;;;46.67;7.18;;;;;;;;;;5033281;28;20587;-73
2023/12/11 02:21:26;;;;;;;44.53;6.45;;;;;;;;;;5026751;28;20209;-73
2023/12/11 02:24:18;;;;;;;42.47;6.15;;;;;;;;;;5026324;28;20498;-73
2023/12/11 02:26:43;;;;;;;40.03;5.72;;;;;;;;;;5028473;28;20185;-73
2023/12/11 02:29:09;;;;;;;47.10;6.72;;;;;;;;;;5027445;28;20578;-73
2023/12/11 02:31:34;;;;;;;42.22;6.50;;;;;;;;;;5028920;28;20208;-74
2023/12/11 02:34:00;;;;;;;57.78;6.75;;;;;;;;;;5029163;28;20693;-73
2023/12/11 02:36:25;;;;;;;43.15;6.22;;;;;;;;;;5020784;28;20209;-73
2023/12/11 02:38:50;;;;;;;45.00;5.82;;;;;;;;;;5020985;28;20189;-73
2023/12/11 02:41:16;;;;;;;46.38;7.50;;;;;;;;;;5032533;28;20259;-73
2023/12/11 02:43:42;;;;;;;42.60;6.13;;;;;;;;;;5036219;28;20661;-73
2023/12/11 02:46:07;;;;;;;39.08;7.05;;;;;;;;;;5003912;28;20208;-74
2023/12/11 02:48:33;;;;;;;45.47;7.15;;;;;;;;;;5027996;28;20194;-73
2023/12/11 02:50:58;;;;;;;45.45;7.18;;;;;;;;;;5035028;28;20250;-73
2023/12/11 02:53:23;;;;;;;38.90;6.75;;;;;;;;;;5022745;28;20190;-73
2023/12/11 02:55:49;;;;;;;43.70;6.65;;;;;;;;;;5002397;28;20217;-73
2023/12/11 02:58:14;;;;;;;46.15;6.28;;;;;;;;;;5023494;28;20186;-73
2023/12/11 03:00:40;;;;;;;32.58;5.93;;;;;;;;;;5028054;28;20194;-73
2023/12/11 03:03:07;;;;;;;36.55;5.28;;;;;;;;;;5032530;28;20196;-74
2023/12/11 03:05:33;;;;;;;36.00;5.50;;;;;;;;;;5036246;28;20189;-74
2023/12/11 03:08:01;;;;;;;39.25;5.68;;;;;;;;;;5010661;28;20652;-74
2023/12/11 03:10:27;;;;;;;40.17;6.53;;;;;;;;;;5028878;28;20201;-73
2023/12/11 03:12:52;;;;;;;42.88;6.78;;;;;;;;;;5023591;28;20194;-73
2023/12/11 03:15:17;;;;;;;40.28;7.22;;;;;;;;;;5027134;28;20625;-73
2023/12/11 03:17:45;;;;;;;36.05;5.88;;;;;;;;;;5017563;28;20194;-75
2023/12/11 03:20:13;;;;;;;42.75;6.57;;;;;;;;;;5037174;28;20196;-79
2023/12/11 03:22:39;;;;;;;51.55;6.53;;;;;;;;;;5008815;28;20193;-79
2023/12/11 03:25:05;;;;;;;48.97;5.78;;;;;;;;;;5026370;28;20183;-79
2023/12/11 03:27:30;;;;;;;36.97;5.45;;;;;;;;;;5004258;28;20191;-77
2023/12/11 03:29:56;;;;;;;38.28;5.75;;;;;;;;;;5008286;28;20545;-78
2023/12/11 03:32:22;;;;;;;39.05;5.32;;;;;;;;;;5020115;28;20501;-78
2023/12/11 03:34:47;;;;;;;43.90;6.85;;;;;;;;;;5018077;28;20217;-77
2023/12/11 03:37:13;;;;;;;48.83;6.63;;;;;;;;;;5024503;28;20714;-79
2023/12/11 03:39:38;;;;;;;38.33;6.15;;;;;;;;;;5021144;28;21750;-78
2023/12/11 03:42:04;;;;;;;35.33;5.78;;;;;;;;;;5012213;28;20280;-78
2023/12/11 03:44:29;;;;;;;37.13;5.75;;;;;;;;;;5012430;28;20185;-77
2023/12/11 03:46:55;;;;;;;50.22;5.80;;;;;;;;;;5016718;28;20191;-78
2023/12/11 03:49:21;;;;;;;42.45;6.13;;;;;;;;;;5008010;28;20742;-77
2023/12/11 03:51:47;;;;;;;38.83;4.97;;;;;;;;;;5008511;28;20217;-77
2023/12/11 03:54:13;;;;;;;40.65;5.60;;;;;;;;;;5012462;28;20194;-77
2023/12/11 03:56:39;;;;;;;41.28;5.93;;;;;;;;;;5025929;28;20182;-79
2023/12/11 03:59:05;;;;;;;35.10;5.60;;;;;;;;;;5024129;28;20186;-77
2023/12/11 04:01:30;;;;;;;39.22;5.90;;;;;;;;;;5033596;28;20186;-80
2023/12/11 04:03:56;;;;;;;35.33;5.32;;;;;;;;;;5033944;28;20272;-78
2023/12/11 04:06:21;;;;;;;32.47;4.95;;;;;;;;;;5041011;28;20189;-78
2023/12/11 04:08:46;;;;;;;47.58;6.53;;;;;;;;;;5039915;28;20550;-79
2023/12/11 04:11:12;;;;;;;28.65;4.32;;;;;;;;;;5038107;28;20186;-78
2023/12/11 04:13:38;;;;;;;38.13;5.00;;;;;;;;;;5036451;28;20185;-79
2023/12/11 04:16:04;;;;;;;41.22;5.25;;;;;;;;;;5025870;28;20233;-78
2023/12/11 04:18:30;;;;;;;30.63;4.85;;;;;;;;;;5040988;28;20212;-78
2023/12/11 04:20:57;;;;;;;29.48;4.70;;;;;;;;;;5034639;28;20190;-78
2023/12/11 04:23:23;;;;;;;37.30;5.40;;;;;;;;;;5036299;28;20654;-78
2023/12/11 04:25:48;;;;;;;24.83;4.25;;;;;;;;;;5043302;28;20519;-78
2023/12/11 04:28:14;;;;;;;32.30;4.30;;;;;;;;;;5038003;28;20193;-77
2023/12/11 04:30:39;;;;;;;31.67;4.50;;;;;;;;;;5037543;28;20208;-78
2023/12/11 04:33:05;;;;;;;32.90;4.30;;;;;;;;;;5018491;28;20200;-78
2023/12/11 04:35:30;;;;;;;32.25;4.53;;;;;;;;;;5042538;28;20248;-78
2023/12/11 04:37:56;;;;;;;31.48;5.20;;;;;;;;;;5038072;28;20189;-77
2023/12/11 04:40:21;;;;;;;30.02;4.03;;;;;;;;;;5029691;28;20190;-77
2023/12/11 04:42:46;;;;;;;42.47;5.45;;;;;;;;;;5013153;28;20590;-77
2023/12/11 04:45:12;;;;;;;29.23;5.03;;;;;;;;;;5018481;28;20192;-76
2023/12/11 04:47:37;;;;;;;41.67;6.00;;;;;;;;;;5037095;28;20664;-76
2023/12/11 04:50:03;;;;;;;33.55;4.93;;;;;;;;;;5025672;28;20222;-76
2023/12/11 04:52:29;;;;;;;34.78;4.53;;;;;;;;;;5026695;28;20573;-75
2023/12/11 04:54:54;;;;;;;39.00;5.95;;;;;;;;;;5032202;28;20279;-75
2023/12/11 04:57:20;;;;;;;43.28;5.88;;;;;;;;;;5012936;28;20357;-76
2023/12/11 04:59:45;;;;;;;34.47;5.07;;;;;;;;;;5027808;28;20202;-75
2023/12/11 05:02:10;;;;;;;33.50;5.10;;;;;;;;;;5025268;28;20212;-75
2023/12/11 05:04:36;;;;;;;28.42;4.18;;;;;;;;;;5033640;28;20201;-75
2023/12/11 05:07:01;;;;;;;38.78;4.75;;;;;;;;;;5010965;28;20190;-74
2023/12/11 05:09:27;;;;;;;30.70;4.35;;;;;;;;;;5028227;28;20715;-74
2023/12/11 05:11:52;;;;;;;32.50;4.85;;;;;;;;;;5030512;28;20189;-74
2023/12/11 05:14:18;;;;;;;40.25;4.85;;;;;;;;;;5033284;28;20231;-74
2023/12/11 05:16:43;;;;;;;33.35;4.72;;;;;;;;;;5028527;28;20234;-74
2023/12/11 05:19:09;;;;;;;32.25;5.38;;;;;;;;;;5026990;28;20572;-75
2023/12/11 05:21:34;;;;;;;33.80;3.95;;;;;;;;;;5034765;28;20629;-73
2023/12/11 05:24:00;;;;;;;29.35;3.67;;;;;;;;;;5033333;28;20186;-73
2023/12/11 05:26:25;;;;;;;30.15;4.30;;;;;;;;;;5025454;28;20596;-73
2023/12/11 05:28:51;;;;;;;29.92;4.68;;;;;;;;;;5021530;28;20662;-74
2023/12/11 05:31:16;;;;;;;26.83;4.15;;;;;;;;;;5015122;28;20575;-74
2023/12/11 05:33:41;;;;;;;32.65;5.43;;;;;;;;;;5026939;28;20293;-74
2023/12/11 05:36:08;;;;;;;33.75;5.60;;;;;;;;;;5033813;28;20210;-74
2023/12/11 05:38:33;;;;;;;24.83;4.95;;;;;;;;;;5017362;28;20293;-74
2023/12/11 05:40:59;;;;;;;36.28;5.15;;;;;;;;;;5017976;28;20325;-73
2023/12/11 05:43:24;;;;;;;34.75;5.03;;;;;;;;;;5024537;28;20589;-73
2023/12/11 05:45:50;;;;;;;36.10;5.32;;;;;;;;;;5027691;28;20186;-73
2023/12/11 05:48:16;;;;;;;25.80;4.55;;;;;;;;;;5032150;28;20243;-73
2023/12/11 05:50:41;;;;;;;31.27;5.32;;;;;;;;;;5013695;28;20185;-73
2023/12/11 05:53:07;;;;;;;29.83;5.05;;;;;;;;;;5025983;28;20218;-74
2023/12/11 05:55:32;;;;;;;42.95;6.93;;;;;;;;;;5032212;28;20276;-73
2023/12/11 05:57:58;;;;;;;40.00;4.97;;;;;;;;;;5031308;28;20181;-74
2023/12/11 06:00:24;;;;;;;41.03;5.50;;;;;;;;;;5037496;28;20207;-74
2023/12/11 06:02:49;;;;;;;32.10;4.78;;;;;;;;;;5028121;28;20186;-73
2023/12/11 06:05:15;;;;;;;30.95;5.07;;;;;;;;;;5045576;28;20523;-74
2023/12/11 06:07:40;;;;;;;30.08;4.70;;;;;;;;;;5026973;28;20320;-74
2023/12/11 06:10:06;;;;;;;29.42;4.88;;;;;;;;;;5028738;28;20673;-76
2023/12/11 06:12:32;;;;;;;35.90;5.40;;;;;;;;;;5039435;28;20186;-74
2023/12/11 06:14:57;;;;;;;37.42;5.50;;;;;;;;;;5005817;28;20385;-73
2023/12/11 06:17:23;;;;;;;37.22;6.10;;;;;;;;;;5021261;28;20194;-74
2023/12/11 06:19:48;;;;;;;33.67;5.38;;;;;;;;;;5029951;28;20201;-73
2023/12/11 06:22:14;;;;;;;28.75;4.85;;;;;;;;;;5021657;28;20631;-75
2023/12/11 06:24:40;;;;;;;37.05;5.22;;;;;;;;;;5025918;28;20973;-75
2023/12/11 06:27:06;;;;;;;33.60;4.68;;;;;;;;;;5026798;28;20191;-75
2023/12/11 06:29:32;;;;;;;35.42;5.28;;;;;;;;;;5020706;28;20202;-74
2023/12/11 06:31:57;;;;;;;36.00;5.10;;;;;;;;;;5026553;28;20185;-75
2023/12/11 06:34:23;;;;;;;26.98;4.65;;;;;;;;;;5012688;28;20194;-77
2023/12/11 06:36:48;;;;;;;34.90;5.15;;;;;;;;;;5012165;28;20188;-78
2023/12/11 06:39:14;;;;;;;41.22;5.70;;;;;;;;;;5017467;28;20660;-78
2023/12/11 06:41:40;;;;;;;29.77;5.05;;;;;;;;;;5016545;28;20193;-76
2023/12/11 06:44:05;;;;;;;31.83;4.82;;;;;;;;;;5021138;28;20192;-78
2023/12/11 06:46:32;;;;;;;34.33;4.47;;;;;;;;;;5026825;28;20256;-78
2023/12/11 06:48:59;;;;;;;36.78;5.32;;;;;;;;;;5026321;28;20187;-78
2023/12/11 06:51:25;;;;;;;46.85;5.95;;;;;;;;;;5035536;28;20239;-77
2023/12/11 06:53:51;;;;;;;40.80;5.30;;;;;;;;;;5028004;28;20542;-77
2023/12/11 06:56:18;;;;;;;38.15;5.55;;;;;;;;;;5023700;28;20212;-78
2023/12/11 06:58:44;;;;;;;30.98;5.43;;;;;;;;;;5021678;28;20248;-78
2023/12/11 07:01:09;;;;;;;41.22;5.93;;;;;;;;;;5019012;28;20194;-78
2023/12/11 07:03:35;;;;;;;34.65;5.72;;;;;;;;;;5026704;28;20201;-78
2023/12/11 07:06:00;;;;;;;36.90;5.68;;;;;;;;;;5009115;28;20233;-78
2023/12/11 07:08:31;;;;;;;34.03;4.78;;;;;;;;;;5025089;28;20203;-79
2023/12/11 07:10:56;;;;;;;34.35;4.47;;;;;;;;;;5022948;28;20194;-78
2023/12/11 07:13:22;;;;;;;25.45;4.45;;;;;;;;;;5043192;28;20499;-78
2023/12/11 07:15:47;;;;;;;34.08;4.82;;;;;;;;;;5026922;28;20242;-77
2023/12/11 07:18:15;;;;;;;24.08;4.13;;;;;;;;;;5011584;28;20214;-78
2023/12/11 07:20:41;;;;;;;35.72;4.13;;;;;;;;;;5026891;28;20420;-78
2023/12/11 07:23:07;;;;;;;34.03;4.68;;;;;;;;;;5019337;28;20214;-78
2023/12/11 07:25:33;;;;;;;32.20;4.57;;;;;;;;;;4999735;28;20627;-76
2023/12/11 07:27:59;;;;;;;30.25;4.95;;;;;;;;;;5016891;28;20274;-78
2023/12/11 07:30:26;;;;;;;25.30;4.38;;;;;;;;;;5026917;28;20329;-78
2023/12/11 07:32:51;;;;;;;20.77;4.15;;;;;;;;;;5012782;28;20236;-77
2023/12/11 07:35:17;;;;;;;30.08;4.45;;;;;;;;;;5023436;28;20210;-77
2023/12/11 07:37:42;;;;;;;27.73;5.07;;;;;;;;;;5009655;28;20185;-79
2023/12/11 07:40:09;;;;;;;30.40;4.35;;;;;;;;;;5033032;28;20186;-77
2023/12/11 07:42:35;;;;;;;22.67;3.95;;;;;;;;;;5020642;28;20190;-77
2023/12/11 07:45:00;;;;;;;18.55;3.35;;;;;;;;;;5001853;28;20205;-78
2023/12/11 07:47:26;;;;;;;27.70;3.65;;;;;;;;;;5030951;28;20233;-78
2023/12/11 07:49:51;;;;;;;20.98;3.55;;;;;;;;;;5032114;28;20264;-78
2023/12/11 07:52:17;;;;;;;20.48;3.33;;;;;;;;;;5026575;28;20740;-77
2023/12/11 07:54:43;;;;;;;30.17;4.70;;;;;;;;;;5012818;28;20217;-77
2023/12/11 07:57:08;;;;;;;30.33;4.38;;;;;;;;;;5017415;28;20292;-78
2023/12/11 07:59:34;;;;;;;24.80;3.58;;;;;;;;;;5031358;28;20210;-76
2023/12/11 08:01:59;;;;;;;25.38;4.18;;;;;;;;;;5013887;28;20209;-77
2023/12/11 08:04:25;;;;;;;29.63;3.70;;;;;;;;;;5023807;28;20641;-77
2023/12/11 08:06:50;;;;;;;26.48;4.30;;;;;;;;;;5035905;28;20275;-81
2023/12/11 08:09:16;;;;;;;20.50;3.03;;;;;;;;;;5024642;28;20201;-78
2023/12/11 08:11:42;;;;;;;23.90;3.28;;;;;;;;;;5029731;28;20187;-79
2023/12/11 08:14:08;;;;;;;24.92;3.53;;;;;;;;;;5030310;28;20280;-79
2023/12/11 08:16:33;;;;;;;24.00;3.45;;;;;;;;;;5026846;28;20237;-79
2023/12/11 08:18:59;;;;;;;19.73;3.20;;;;;;;;;;5018517;28;20202;-79
2023/12/11 08:21:24;;;;;;;21.75;3.13;;;;;;;;;;5023389;28;20226;-78
2023/12/11 08:23:51;;;;;;;19.13;3.50;;;;;;;;;;5026999;28;20202;-79
2023/12/11 08:26:19;;;;;;;13.77;3.08;;;;;;;;;;5018817;28;20214;-79
2023/12/11 08:28:46;;;;;;;21.30;4.07;;;;;;;;;;5022286;28;20187;-79
2023/12/11 08:31:12;;;;;;;17.52;3.28;;;;;;;;;;5031120;28;20182;-79
2023/12/11 08:33:37;;;;;;;18.52;3.45;;;;;;;;;;5023734;28;20518;-79
2023/12/11 08:36:04;;;;;;;24.48;3.20;;;;;;;;;;5028684;28;20194;-79
2023/12/11 08:38:30;;;;;;;12.88;2.80;;;;;;;;;;5033850;28;20496;-79
2023/12/11 08:40:55;;;;;;;16.48;2.70;;;;;;;;;;5021178;28;20186;-78
2023/12/11 08:43:21;;;;;;;15.60;3.40;;;;;;;;;;5040849;28;20197;-78
2023/12/11 08:45:47;;;;;;;12.23;3.08;;;;;;;;;;5020904;28;20170;-78
2023/12/11 08:48:13;;;;;;;16.63;2.83;;;;;;;;;;5039150;28;20253;-79
2023/12/11 08:50:39;;;;;;;19.05;2.60;;;;;;;;;;5034478;28;20281;-78
2023/12/11 08:53:05;;;;;;;14.65;2.83;;;;;;;;;;5036193;28;20178;-78
2023/12/11 08:55:31;;;;;;;15.98;2.58;;;;;;;;;;5031924;28;20226;-78
2023/12/11 08:57:56;;;;;;;17.67;2.63;;;;;;;;;;5028425;28;20285;-76
2023/12/11 09:00:22;;;;;;;10.10;2.05;;;;;;;;;;5026575;28;20193;-78
2023/12/11 09:02:48;;;;;;;8.60;2.20;;;;;;;;;;5041714;28;20190;-78
2023/12/11 09:05:14;;;;;;;8.48;1.75;;;;;;;;;;5031779;28;20183;-77
2023/12/11 09:07:40;;;;;;;12.73;1.90;;;;;;;;;;5036567;28;20209;-77
2023/12/11 09:10:08;;;;;;;11.18;1.92;;;;;;;;;;5050995;28;20177;-78
2023/12/11 09:12:34;;;;;;;11.02;1.83;;;;;;;;;;5041999;28;20183;-77
2023/12/11 09:15:02;;;;;;;9.57;1.73;;;;;;;;;;5007053;28;20237;-78
2023/12/11 09:17:29;;;;;;;7.82;1.50;;;;;;;;;;5060240;28;20194;-77
2023/12/11 09:19:55;;;;;;;7.32;1.63;;;;;;;;;;5016599;28;20197;-76
2023/12/11 09:22:22;;;;;;;11.93;1.63;;;;;;;;;;5022025;28;20693;-77
2023/12/11 09:24:47;;;;;;;7.40;1.40;;;;;;;;;;5032134;28;20221;-78
2023/12/11 09:27:13;;;;;;;6.13;1.35;;;;;;;;;;5027464;28;20174;-77
2023/12/11 09:29:39;;;;;;;12.15;1.70;;;;;;;;;;5029758;28;20269;-77
2023/12/11 09:32:05;;;;;;;10.30;1.85;;;;;;;;;;5014094;28;20268;-77
2023/12/11 09:34:32;;;;;;;9.50;1.73;;;;;;;;;;5029247;28;20650;-77
2023/12/11 09:36:58;;;;;;;10.50;2.08;;;;;;;;;;5010145;28;20182;-78
2023/12/11 09:39:23;;;;;;;13.55;2.00;;;;;;;;;;4996309;28;20599;-78
2023/12/11 09:41:49;;;;;;;12.80;2.17;;;;;;;;;;5018633;28;20639;-78
2023/12/11 09:44:17;;;;;;;11.00;1.88;;;;;;;;;;5043845;28;20547;-76
2023/12/11 09:47:09;;;;;;;12.23;1.98;;;;;;;;;;5023762;28;20194;-76
2023/12/11 09:49:35;;;;;;;11.18;1.95;;;;;;;;;;5012302;28;20203;-76
2023/12/11 09:52:02;;;;;;;18.55;2.17;;;;;;;;;;5024624;28;20185;-76
2023/12/11 09:54:27;;;;;;;16.02;2.78;;;;;;;;;;5023691;28;20195;-77
2023/12/11 09:56:54;;;;;;;14.77;2.10;;;;;;;;;;5018622;28;20193;-77
2023/12/11 09:59:20;;;;;;;18.50;2.47;;;;;;;;;;5025279;28;20187;-76
2023/12/11 10:01:47;;;;;;;18.73;2.90;;;;;;;;;;5027640;28;20677;-76
2023/12/11 10:04:13;;;;;;;14.05;2.40;;;;;;;;;;5018456;28;20184;-77
2023/12/11 10:06:39;;;;;;;17.92;2.40;;;;;;;;;;5019848;28;20186;-78
2023/12/11 10:09:05;;;;;;;12.75;1.70;;;;;;;;;;5027476;28;20589;-78
2023/12/11 10:11:31;;;;;;;10.07;1.88;;;;;;;;;;5022463;28;20301;-77
2023/12/11 10:14:11;;;;;;;14.57;2.42;;;;;;;;;;5016698;28;20626;-77
2023/12/11 10:16:37;;;;;;;15.00;2.30;;;;;;;;;;5027686;28;20297;-77
2023/12/11 10:19:03;;;;;;;14.38;1.92;;;;;;;;;;5012549;28;20331;-78
2023/12/11 10:21:38;;;;;;;12.48;2.40;;;;;;;;;;5025110;28;20190;-78
2023/12/11 10:24:06;;;;;;;12.60;2.33;;;;;;;;;;5021251;28;20247;-78
2023/12/11 10:26:33;;;;;;;15.38;2.78;;;;;;;;;;5026545;28;20685;-78
2023/12/11 10:29:21;;;;;;;16.27;2.03;;;;;;;;;;5025552;28;20674;-78
2023/12/11 10:31:48;;;;;;;14.38;2.05;;;;;;;;;;5028119;28;20183;-77
2023/12/11 10:34:14;;;;;;;25.20;2.90;;;;;;;;;;5027653;28;20666;-76
2023/12/11 10:36:52;;;;;;;18.13;2.22;;;;;;;;;;5017189;28;20210;-77
2023/12/11 10:39:21;;;;;;;21.85;2.70;;;;;;;;;;5009788;28;20182;-76
2023/12/11 10:41:47;;;;;;;15.07;2.40;;;;;;;;;;5026766;28;20189;-76
2023/12/11 10:44:23;;;;;;;14.32;2.13;;;;;;;;;;5023974;28;20740;-76
2023/12/11 10:46:51;;;;;;;13.77;2.13;;;;;;;;;;5028028;28;20181;-76
2023/12/11 10:49:19;;;;;;;15.23;2.22;;;;;;;;;;5028019;28;20236;-76
2023/12/11 10:51:47;;;;;;;14.55;1.80;;;;;;;;;;5024193;28;20638;-77
2023/12/11 10:54:12;;;;;;;13.80;2.72;;;;;;;;;;5027165;28;20775;-77
2023/12/11 10:56:42;;;;;;;8.98;1.70;;;;;;;;;;5021748;28;20301;-77
2023/12/11 10:59:07;;;;;;;15.35;2.15;;;;;;;;;;5020996;28;20626;-76
2023/12/11 11:01:34;;;;;;;11.95;1.90;;;;;;;;;;5024234;28;20206;-77
2023/12/11 11:04:00;;;;;;;12.90;2.00;;;;;;;;;;5031333;28;20243;-78
2023/12/11 11:06:28;;;;;;;11.00;2.80;;;;;;;;;;5029696;28;20186;-78
2023/12/11 11:09:10;;;;;;;19.95;3.10;;;;;;;;;;5008725;28;20271;-77
2023/12/11 11:11:46;;;;;;;18.85;2.25;;;;;;;;;;5022334;28;20194;-78
2023/12/11 11:14:20;;;;;;;16.50;2.28;;;;;;;;;;5029783;28;20189;-77
2023/12/11 11:16:56;;;;;;;15.68;2.80;;;;;;;;;;4997470;28;20297;-77
2023/12/11 11:19:22;;;;;;;21.50;3.25;;;;;;;;;;5023449;28;20210;-77
2023/12/11 11:21:59;;;;;;;20.70;3.25;;;;;;;;;;5013708;28;20273;-78
2023/12/11 11:24:26;;;;;;;19.95;2.88;;;;;;;;;;5022546;28;20205;-77
2023/12/11 11:26:51;;;;;;;20.02;3.15;;;;;;;;;;4999032;28;20266;-76
2023/12/11 11:29:40;;;;;;;20.60;3.55;;;;;;;;;;5028576;28;20190;-76
2023/12/11 11:32:06;;;;;;;32.60;4.35;;;;;;;;;;5011419;28;20662;-76
2023/12/11 11:34:41;;;;;;;20.83;4.07;;;;;;;;;;5026311;28;20193;-77
2023/12/11 11:37:09;;;;;;;16.55;2.95;;;;;;;;;;5017176;28;20195;-76
2023/12/11 11:39:57;;;;;;;24.35;4.65;;;;;;;;;;5021831;28;20198;-75
2023/12/11 11:42:23;;;;;;;26.20;4.30;;;;;;;;;;5012615;28;20187;-75
2023/12/11 11:45:09;;;;;;;24.20;4.00;;;;;;;;;;5023078;28;20182;-75
2023/12/11 11:47:35;;;;;;;17.45;3.38;;;;;;;;;;5011765;28;20199;-76
2023/12/11 11:50:05;;;;;;;26.15;3.22;;;;;;;;;;5023345;28;20194;-75
2023/12/11 11:52:31;;;;;;;22.95;3.65;;;;;;;;;;5026371;28;20260;-75
2023/12/11 11:55:04;;;;;;;18.95;2.80;;;;;;;;;;5027800;28;20206;-75
2023/12/11 11:57:30;;;;;;;17.80;2.60;;;;;;;;;;5023492;28;20626;-76
2023/12/11 11:59:55;;;;;;;14.15;2.38;;;;;;;;;;5017184;28;20265;-75
2023/12/11 12:02:23;;;;;;;21.20;2.42;;;;;;;;;;5012206;28;20359;-75
2023/12/11 12:04:48;;;;;;;17.52;2.55;;;;;;;;;;5036112;28;20171;-74
2023/12/11 12:07:14;;;;;;;13.73;2.13;;;;;;;;;;5018516;28;20428;-75
2023/12/11 12:09:40;;;;;;;12.95;2.00;;;;;;;;;;5015114;28;20281;-73
2023/12/11 12:12:06;;;;;;;16.20;2.53;;;;;;;;;;5023378;28;20552;-74
2023/12/11 12:14:31;;;;;;;9.43;1.83;;;;;;;;;;5021882;28;20186;-76
2023/12/11 12:16:57;;;;;;;17.30;2.33;;;;;;;;;;5024264;28;20226;-74
2023/12/11 12:19:31;;;;;;;12.30;2.08;;;;;;;;;;5022444;28;20224;-75
2023/12/11 12:21:56;;;;;;;11.32;2.10;;;;;;;;;;5024561;28;20191;-75
2023/12/11 12:24:22;;;;;;;19.40;3.10;;;;;;;;;;4998702;28;20191;-74
2023/12/11 12:27:03;;;;;;;17.70;2.67;;;;;;;;;;5021631;28;20186;-74
2023/12/11 12:29:31;;;;;;;10.18;1.77;;;;;;;;;;5039835;28;20217;-74
2023/12/11 12:32:00;;;;;;;10.27;1.60;;;;;;;;;;5027714;28;20193;-74
2023/12/11 12:34:29;;;;;;;10.05;1.25;;;;;;;;;;5019574;28;20210;-75
2023/12/11 12:36:55;;;;;;;7.88;1.27;;;;;;;;;;5024340;28;20191;-75
2023/12/11 12:39:21;;;;;;;10.40;1.67;;;;;;;;;;5023149;28;20183;-75
2023/12/11 12:41:50;;;;;;;11.18;1.77;;;;;;;;;;5003143;28;20257;-76
2023/12/11 12:44:19;;;;;;;6.03;1.00;;;;;;;;;;5019121;28;20191;-75
2023/12/11 12:46:46;;;;;;;8.02;1.00;;;;;;;;;;5014134;28;20201;-75
2023/12/11 12:49:16;;;;;;;8.43;1.33;;;;;;;;;;5032799;28;20186;-75
2023/12/11 12:51:47;;;;;;;9.23;1.50;;;;;;;;;;5009939;28;20646;-74
2023/12/11 12:54:14;;;;;;;7.47;1.23;;;;;;;;;;5030011;28;20178;-75
2023/12/11 12:56:41;;;;;;;11.57;1.20;;;;;;;;;;5025179;28;20263;-75
2023/12/11 12:59:07;;;;;;;8.52;1.20;;;;;;;;;;5017906;28;20190;-77
2023/12/11 13:01:37;;;;;;;5.70;1.00;;;;;;;;;;5030825;28;20197;-75
2023/12/11 13:04:11;;;;;;;7.40;0.90;;;;;;;;;;5030801;28;20554;-75
2023/12/11 13:06:36;;;;;;;10.60;1.10;;;;;;;;;;5031075;28;20549;-75
2023/12/11 13:09:03;;;;;;;5.03;0.75;;;;;;;;;;5030258;28;20192;-76
2023/12/11 13:11:43;;;;;;;8.52;1.30;;;;;;;;;;5021039;28;20315;-75
2023/12/11 13:14:11;;;;;;;10.10;1.30;;;;;;;;;;5030937;28;20243;-74
2023/12/11 13:16:41;;;;;;;7.18;1.25;;;;;;;;;;5027321;28;20331;-74
2023/12/11 13:19:06;;;;;;;6.30;0.98;;;;;;;;;;5026322;28;20285;-75
2023/12/11 13:21:32;;;;;;;6.85;1.08;;;;;;;;;;5025846;28;20567;-75
2023/12/11 13:23:58;;;;;;;6.10;0.88;;;;;;;;;;5030663;28;20628;-75
2023/12/11 13:26:24;;;;;;;7.75;0.80;;;;;;;;;;5030400;28;20178;-74
2023/12/11 13:28:50;;;;;;;4.38;0.63;;;;;;;;;;5021306;28;20261;-75
2023/12/11 13:31:15;;;;;;;6.07;0.50;;;;;;;;;;5024728;28;20619;-75
2023/12/11 13:33:41;;;;;;;2.42;0.50;;;;;;;;;;5019357;28;20684;-75
2023/12/11 13:36:07;;;;;;;3.35;0.50;;;;;;;;;;5026340;28;20569;-75
2023/12/11 13:38:35;;;;;;;3.90;0.57;;;;;;;;;;5023763;28;20233;-75
2023/12/11 13:41:01;;;;;;;7.47;0.70;;;;;;;;;;5001143;28;20282;-75
2023/12/11 13:43:27;;;;;;;5.72;0.68;;;;;;;;;;5025505;28;20282;-75
2023/12/11 13:45:52;;;;;;;2.80;0.22;;;;;;;;;;5034578;28;20628;-75
2023/12/11 13:48:18;;;;;;;2.92;0.57;;;;;;;;;;5014241;28;20545;-75
2023/12/11 13:50:45;;;;;;;4.38;0.65;;;;;;;;;;5023806;28;20199;-77
2023/12/11 13:53:11;;;;;;;3.83;0.70;;;;;;;;;;5013136;28;20515;-75
2023/12/11 13:55:37;;;;;;;4.97;0.77;;;;;;;;;;5027505;28;20210;-75
2023/12/11 13:58:02;;;;;;;5.30;0.93;;;;;;;;;;5020497;28;20672;-74
2023/12/11 14:00:27;;;;;;;6.22;0.77;;;;;;;;;;5013925;28;20272;-74
2023/12/11 14:02:53;;;;;;;7.35;0.70;;;;;;;;;;5026096;28;20549;-73
2023/12/11 14:05:18;;;;;;;2.47;0.45;;;;;;;;;;5027061;28;20571;-74
2023/12/11 14:07:44;;;;;;;1.58;0.50;;;;;;;;;;5017529;28;20212;-76
2023/12/11 14:10:09;;;;;;;4.32;0.40;;;;;;;;;;5005885;28;20649;-75
2023/12/11 14:12:37;;;;;;;4.38;0.60;;;;;;;;;;5025718;28;20190;-74
2023/12/11 14:15:04;;;;;;;4.57;0.50;;;;;;;;;;5020188;28;20218;-74
2023/12/11 14:17:30;;;;;;;1.92;0.30;;;;;;;;;;5022924;28;20750;-74
2023/12/11 14:19:56;;;;;;;3.17;0.50;;;;;;;;;;5029858;28;20320;-74
2023/12/11 14:22:21;;;;;;;7.18;0.85;;;;;;;;;;5019523;28;20656;-74
2023/12/11 14:24:47;;;;;;;2.33;0.65;;;;;;;;;;5016802;28;20205;-75
2023/12/11 14:27:13;;;;;;;4.15;0.60;;;;;;;;;;5002900;28;20268;-74